Terminal Aerodrome Forecast
Issued by NWS

Home | Current Version | Previous Version | Text Only | Print | Product List | Glossary On
Versions: 1 2 3 4 5 6 7 8 9 10 11 12 13 14 15 16 17 18 19 20 21 22 23 24 25 26 27 28 29 30 31 32
000
FTUS44 KMOB 272320
TAFBFM
TAF
KBFM 272320Z 2800/2824 13007KT P6SM FEW060 BKN250
     FM280300 08007KT P6SM SCT250
     FM281200 07008KT P6SM VCSH FEW040 BKN100
     FM281700 11008KT P6SM VCSH BKN050 BKN100=

USA.gov is the U.S. government's official web portal to all federal, state and local government web resources and services.